createdAt,value
2023-04-07T00:00:07.157Z,50.06
2023-04-07T00:01:07.250Z,49.17
2023-04-07T00:02:07.267Z,44.58
2023-04-07T00:03:07.718Z,53.73
2023-04-07T00:04:07.416Z,53.38
2023-04-07T00:05:07.350Z,42.12
2023-04-07T00:06:07.352Z,47.42
2023-04-07T00:07:07.412Z,43.01
2023-04-07T00:08:07.372Z,48.87
2023-04-07T00:09:07.417Z,55.34
2023-04-07T00:10:07.470Z,59.45
2023-04-07T00:11:07.640Z,48.54
2023-04-07T00:12:07.537Z,57.12
2023-04-07T00:13:07.544Z,45.04
2023-04-07T00:14:07.626Z,48.02
2023-04-07T00:15:07.620Z,49.80
2023-04-07T00:16:07.734Z,53.21
2023-04-07T00:17:07.718Z,50.39
2023-04-07T00:18:07.820Z,47.93
2023-04-07T00:19:07.804Z,50.30
2023-04-07T00:20:07.837Z,50.90
2023-04-07T00:21:07.867Z,49.01
2023-04-07T00:22:07.953Z,52.27
2023-04-07T00:23:08.025Z,49.69
2023-04-07T00:24:08.054Z,49.39
2023-04-07T00:25:08.096Z,51.47
2023-04-07T00:26:08.151Z,41.33
2023-04-07T00:27:08.278Z,48.47
2023-04-07T00:28:08.272Z,52.60
2023-04-07T00:29:08.301Z,42.69
2023-04-07T00:30:08.385Z,52.32
2023-04-07T00:31:08.469Z,41.83
2023-04-07T00:32:08.452Z,49.48
2023-04-07T00:33:09.691Z,42.94
2023-04-07T00:34:08.633Z,50.70
2023-04-07T00:35:08.664Z,37.68
2023-04-07T00:36:08.708Z,42.19
2023-04-07T00:37:08.779Z,41.74
2023-04-07T00:38:08.824Z,47.18
2023-04-07T00:39:08.853Z,42.52
2023-04-07T00:40:08.892Z,34.23
2023-04-07T00:41:08.927Z,29.85
2023-04-07T00:42:08.972Z,35.62
2023-04-07T00:43:09.003Z,40.69
2023-04-07T00:44:09.086Z,44.81
2023-04-07T00:45:09.108Z,38.11
2023-04-07T00:46:09.159Z,38.59
2023-04-07T00:47:09.223Z,34.58
2023-04-07T00:48:09.263Z,27.64
2023-04-07T00:49:11.178Z,32.34
2023-04-07T00:50:09.345Z,37.49
2023-04-07T00:51:09.364Z,30.33
2023-04-07T00:52:09.446Z,34.81
2023-04-07T00:53:09.481Z,40.78
2023-04-07T00:54:09.500Z,27.16
2023-04-07T00:55:09.582Z,29.15
2023-04-07T00:56:09.623Z,35.14
2023-04-07T00:57:09.692Z,37.12
2023-04-07T00:58:09.701Z,25.80
2023-04-07T00:59:09.725Z,32.99
2023-04-07T01:00:09.825Z,38.68
2023-04-07T01:01:09.889Z,32.52
2023-04-07T01:02:09.985Z,44.83
2023-04-07T01:03:10.133Z,35.72
2023-04-07T01:04:10.086Z,40.98
2023-04-07T01:05:10.116Z,34.62
2023-04-07T01:06:10.055Z,37.92
2023-04-07T01:07:10.099Z,40.68
2023-04-07T01:08:10.170Z,37.66
2023-04-07T01:09:10.172Z,36.19
2023-04-07T01:10:10.248Z,39.11
2023-04-07T01:11:10.291Z,39.10
2023-04-07T01:12:10.332Z,34.17
2023-04-07T01:13:10.407Z,28.41
2023-04-07T01:14:10.426Z,43.28
2023-04-07T01:15:10.472Z,41.99
2023-04-07T01:16:10.568Z,37.45
2023-04-07T01:17:10.575Z,40.59
2023-04-07T01:18:10.705Z,45.69
2023-04-07T01:19:10.649Z,48.53
2023-04-07T01:20:10.694Z,39.50
2023-04-07T01:21:10.722Z,39.06
2023-04-07T01:22:10.820Z,36.07
2023-04-07T01:23:10.882Z,35.42
2023-04-07T01:24:10.897Z,40.25
2023-04-07T01:25:11.003Z,42.53
2023-04-07T01:26:11.007Z,37.49
2023-04-07T01:27:11.040Z,38.34
2023-04-07T01:28:11.134Z,40.32
2023-04-07T01:29:11.213Z,47.58
2023-04-07T01:30:11.240Z,53.19
2023-04-07T01:31:11.271Z,46.96
2023-04-07T01:32:11.459Z,44.04
2023-04-07T01:33:11.475Z,42.62
2023-04-07T01:34:11.472Z,49.41
2023-04-07T01:35:11.538Z,48.23
2023-04-07T01:36:11.584Z,39.25
2023-04-07T01:37:11.640Z,40.43
2023-04-07T01:38:11.656Z,33.03
2023-04-07T01:39:11.736Z,38.71
2023-04-07T01:40:11.776Z,39.70
2023-04-07T01:41:11.871Z,41.92
2023-04-07T01:42:12.252Z,43.75
2023-04-07T01:43:11.943Z,38.15
2023-04-07T01:44:12.056Z,45.07
2023-04-07T01:45:12.058Z,48.58
2023-04-07T01:46:12.173Z,50.39
2023-04-07T01:47:12.246Z,47.13
2023-04-07T01:48:12.410Z,40.74
2023-04-07T01:49:12.330Z,43.38
2023-04-07T01:50:12.405Z,42.96
2023-04-07T01:51:12.421Z,41.64
2023-04-07T01:52:12.518Z,41.53
2023-04-07T01:53:12.526Z,39.68
2023-04-07T01:54:12.635Z,46.40
2023-04-07T01:55:12.645Z,46.85
2023-04-07T01:56:12.764Z,47.44
2023-04-07T01:57:12.761Z,44.53
2023-04-07T01:58:12.873Z,39.82
2023-04-07T01:59:12.889Z,44.15
2023-04-07T02:00:12.957Z,44.32
2023-04-07T02:01:13.088Z,42.12
2023-04-07T02:02:13.201Z,45.42
2023-04-07T02:03:13.369Z,37.56
2023-04-07T02:04:13.277Z,44.34
2023-04-07T02:05:13.233Z,41.75
2023-04-07T02:06:13.337Z,44.72
2023-04-07T02:07:13.351Z,40.09
2023-04-07T02:08:13.379Z,37.18
2023-04-07T02:09:13.485Z,38.25
2023-04-07T02:10:13.506Z,47.80
2023-04-07T02:11:13.705Z,48.61
2023-04-07T02:12:13.679Z,42.29
2023-04-07T02:13:13.684Z,39.72
2023-04-07T02:14:13.725Z,45.11
2023-04-07T02:15:13.849Z,46.14
2023-04-07T02:16:13.961Z,45.87
2023-04-07T02:17:13.963Z,46.72
2023-04-07T02:18:14.030Z,45.12
2023-04-07T02:19:14.052Z,41.40
2023-04-07T02:20:14.143Z,42.92
2023-04-07T02:21:14.212Z,41.33
2023-04-07T02:22:14.211Z,44.52
2023-04-07T02:23:14.330Z,44.89
2023-04-07T02:24:14.385Z,46.47
2023-04-07T02:25:14.411Z,45.73
2023-04-07T02:26:14.503Z,35.50
2023-04-07T02:27:14.547Z,41.47
2023-04-07T02:28:14.658Z,42.03
2023-04-07T02:29:14.628Z,46.06
2023-04-07T02:30:14.731Z,45.43
2023-04-07T02:31:14.816Z,47.79
2023-04-07T02:32:14.842Z,43.20
2023-04-07T02:33:14.882Z,41.39
2023-04-07T02:34:14.906Z,46.05
2023-04-07T02:35:15.021Z,40.86
2023-04-07T02:36:15.025Z,44.41
2023-04-07T02:37:15.106Z,40.70
2023-04-07T02:38:15.183Z,44.64
2023-04-07T02:39:15.211Z,37.64
2023-04-07T02:40:15.260Z,40.07
2023-04-07T02:41:15.309Z,43.96
2023-04-07T02:42:15.405Z,46.21
2023-04-07T02:43:15.461Z,47.60
2023-04-07T02:44:15.523Z,42.84
2023-04-07T02:45:15.607Z,41.80
2023-04-07T02:46:16.719Z,43.23
2023-04-07T02:47:15.674Z,41.99
2023-04-07T02:48:15.746Z,42.02
2023-04-07T02:49:15.770Z,45.33
2023-04-07T02:50:15.904Z,42.75
2023-04-07T02:51:15.889Z,42.11
2023-04-07T02:52:16.016Z,43.43
2023-04-07T02:53:16.021Z,48.58
2023-04-07T02:54:16.118Z,46.30
2023-04-07T02:55:16.138Z,45.68
2023-04-07T02:56:16.208Z,41.68
2023-04-07T02:57:16.243Z,35.33
2023-04-07T02:58:16.288Z,46.13
2023-04-07T02:59:16.329Z,47.82
2023-04-07T03:00:16.445Z,45.78
2023-04-07T03:01:16.515Z,39.84
2023-04-07T03:02:16.636Z,44.14
2023-04-07T03:03:16.734Z,42.66
2023-04-07T03:04:16.679Z,45.87
2023-04-07T03:05:16.739Z,45.65
2023-04-07T03:06:16.740Z,40.74
2023-04-07T03:07:16.862Z,44.20
2023-04-07T03:08:16.882Z,46.77
2023-04-07T03:09:16.947Z,46.46
2023-04-07T03:10:17.048Z,45.45
2023-04-07T03:11:17.030Z,47.14
2023-04-07T03:12:17.145Z,43.44
2023-04-07T03:13:17.168Z,46.09
2023-04-07T03:14:17.258Z,48.62
2023-04-07T03:15:18.852Z,44.00
2023-04-07T03:16:17.369Z,46.78
2023-04-07T03:17:17.406Z,44.17
2023-04-07T03:18:17.411Z,42.13
2023-04-07T03:19:17.485Z,39.73
2023-04-07T03:20:17.568Z,49.92
2023-04-07T03:21:17.565Z,44.42
2023-04-07T03:22:17.645Z,43.92
2023-04-07T03:23:17.691Z,44.43
2023-04-07T03:24:17.722Z,45.33
2023-04-07T03:25:17.805Z,44.96
2023-04-07T03:26:17.836Z,46.53
2023-04-07T03:27:17.878Z,46.09
2023-04-07T03:28:17.958Z,46.25
2023-04-07T03:29:18.041Z,47.21
2023-04-07T03:30:18.085Z,44.93
2023-04-07T03:31:18.189Z,49.80
2023-04-07T03:32:18.161Z,49.20
2023-04-07T03:33:18.303Z,45.98
2023-04-07T03:34:18.345Z,50.37
2023-04-07T03:35:18.338Z,51.01
2023-04-07T03:36:18.385Z,49.28
2023-04-07T03:37:18.430Z,49.62
2023-04-07T03:38:18.522Z,50.93
2023-04-07T03:39:18.553Z,48.47
2023-04-07T03:40:18.615Z,52.36
2023-04-07T03:41:18.700Z,44.89
2023-04-07T03:42:18.709Z,46.62
2023-04-07T03:43:18.817Z,46.74
2023-04-07T03:44:18.836Z,46.24
2023-04-07T03:45:18.933Z,50.19
2023-04-07T03:46:19.079Z,47.47
2023-04-07T03:47:19.010Z,48.48
2023-04-07T03:48:19.077Z,52.14
2023-04-07T03:49:19.153Z,51.99
2023-04-07T03:50:19.201Z,50.73
2023-04-07T03:51:19.273Z,52.81
2023-04-07T03:52:19.313Z,49.74
2023-04-07T03:53:19.439Z,51.09
2023-04-07T03:54:19.502Z,52.51
2023-04-07T03:55:19.516Z,52.39
2023-04-07T03:56:19.576Z,49.99
2023-04-07T03:57:19.636Z,50.47
2023-04-07T03:58:19.730Z,51.09
2023-04-07T03:59:34.758Z,52.19
2023-04-07T04:00:19.710Z,52.68
2023-04-07T04:01:19.775Z,53.89
2023-04-07T04:02:19.878Z,53.55
2023-04-07T04:03:19.901Z,52.87
2023-04-07T04:04:19.776Z,44.77
2023-04-07T04:05:19.767Z,38.55
2023-04-07T04:06:19.704Z,34.96
2023-04-07T04:07:19.697Z,25.68
2023-04-07T04:08:19.690Z,27.35
2023-04-07T04:09:19.669Z,25.00
2023-04-07T04:10:19.678Z,25.77
2023-04-07T04:11:19.644Z,25.00
2023-04-07T04:12:19.653Z,25.08
2023-04-07T04:13:19.635Z,27.29
2023-04-07T04:14:19.666Z,28.06
2023-04-07T04:15:19.660Z,27.34
2023-04-07T04:16:19.648Z,25.00
2023-04-07T04:17:19.666Z,25.00
2023-04-07T04:18:19.642Z,25.00
2023-04-07T04:19:19.642Z,25.79
2023-04-07T04:20:19.613Z,25.16
2023-04-07T04:21:19.613Z,25.00
2023-04-07T04:22:19.600Z,25.86
2023-04-07T04:23:19.592Z,26.18
2023-04-07T04:24:19.578Z,25.00
2023-04-07T04:25:19.577Z,27.08
2023-04-07T04:26:19.588Z,28.97
2023-04-07T04:27:19.546Z,32.89
2023-04-07T04:28:19.598Z,29.43
2023-04-07T04:29:19.586Z,25.00
2023-04-07T04:30:19.563Z,28.27
2023-04-07T04:31:19.721Z,25.00
2023-04-07T04:32:19.578Z,26.73
2023-04-07T04:33:19.503Z,34.49
2023-04-07T04:34:19.497Z,36.66
2023-04-07T04:35:19.481Z,35.46
2023-04-07T04:36:19.503Z,35.79
2023-04-07T04:37:19.479Z,39.01
2023-04-07T04:38:19.510Z,41.88
2023-04-07T04:39:19.469Z,42.05
2023-04-07T04:40:19.471Z,47.60
2023-04-07T04:41:19.438Z,51.88
2023-04-07T04:42:19.502Z,48.88
2023-04-07T04:43:19.440Z,46.65
2023-04-07T04:44:19.442Z,55.82
2023-04-07T04:45:19.446Z,56.69
2023-04-07T04:46:19.437Z,59.46
2023-04-07T04:47:19.465Z,59.86
2023-04-07T04:48:19.408Z,59.50
2023-04-07T04:49:19.428Z,61.10
2023-04-07T04:50:19.382Z,61.65
2023-04-07T04:51:19.426Z,63.55
2023-04-07T04:52:19.393Z,62.67
2023-04-07T04:53:19.396Z,64.80
2023-04-07T04:54:19.408Z,66.52
2023-04-07T04:55:19.405Z,65.65
2023-04-07T04:56:19.383Z,67.85
2023-04-07T04:57:19.347Z,69.19
2023-04-07T04:58:19.365Z,69.47
2023-04-07T04:59:19.340Z,72.37
2023-04-07T05:00:19.405Z,65.93
2023-04-07T05:01:19.357Z,73.04
2023-04-07T05:02:19.507Z,70.48
2023-04-07T05:03:19.596Z,74.32
2023-04-07T05:04:19.392Z,73.71
2023-04-07T05:05:19.373Z,72.35
2023-04-07T05:06:19.288Z,73.72
2023-04-07T05:07:19.399Z,70.97
2023-04-07T05:08:19.310Z,71.59
2023-04-07T05:09:19.253Z,72.78
2023-04-07T05:10:19.326Z,75.33
2023-04-07T05:11:19.274Z,76.30
2023-04-07T05:12:19.257Z,75.20
2023-04-07T05:13:19.239Z,77.93
2023-04-07T05:14:19.232Z,73.85
2023-04-07T05:15:19.247Z,75.30
2023-04-07T05:16:19.274Z,75.56
2023-04-07T05:17:19.280Z,75.54
2023-04-07T05:18:19.189Z,76.02
2023-04-07T05:19:19.223Z,79.34
2023-04-07T05:20:19.240Z,78.73
2023-04-07T05:21:19.175Z,78.21
2023-04-07T05:22:19.192Z,80.41
2023-04-07T05:23:19.145Z,77.68
2023-04-07T05:24:19.208Z,78.64
2023-04-07T05:25:19.170Z,79.30
2023-04-07T05:26:19.215Z,80.95
2023-04-07T05:27:19.264Z,81.12
2023-04-07T05:28:19.120Z,80.24
2023-04-07T05:29:19.129Z,80.66
2023-04-07T05:30:19.159Z,78.19
2023-04-07T05:31:19.245Z,79.06
2023-04-07T05:32:19.209Z,81.28
2023-04-07T05:33:19.774Z,84.07
2023-04-07T05:34:19.333Z,83.62
2023-04-07T05:35:19.273Z,85.95
2023-04-07T05:36:19.313Z,79.49
2023-04-07T05:37:19.325Z,82.20
2023-04-07T05:38:19.294Z,84.28
2023-04-07T05:39:19.361Z,83.22
2023-04-07T05:40:19.366Z,85.33
2023-04-07T05:41:19.348Z,81.06
2023-04-07T05:42:19.388Z,85.70
2023-04-07T05:43:19.359Z,84.96
2023-04-07T05:44:19.414Z,85.03
2023-04-07T05:45:19.366Z,85.57
2023-04-07T05:46:19.505Z,84.62
2023-04-07T05:47:19.406Z,84.25
2023-04-07T05:48:19.397Z,85.97
2023-04-07T05:49:20.488Z,85.58
2023-04-07T05:50:19.378Z,87.28
2023-04-07T05:51:19.417Z,85.45
2023-04-07T05:52:19.457Z,86.87
2023-04-07T05:53:19.462Z,86.14
2023-04-07T05:54:20.280Z,85.66
2023-04-07T05:55:19.525Z,88.07
2023-04-07T05:56:19.533Z,89.35
2023-04-07T05:57:19.585Z,89.36
2023-04-07T05:58:19.599Z,88.58
2023-04-07T05:59:19.640Z,87.88
2023-04-07T06:00:19.659Z,91.37
2023-04-07T06:01:19.649Z,88.35
2023-04-07T06:02:19.892Z,89.97
2023-04-07T06:03:19.738Z,89.68
2023-04-07T06:04:19.699Z,88.15
2023-04-07T06:05:19.824Z,92.49
2023-04-07T06:06:19.760Z,91.39
2023-04-07T06:07:19.802Z,89.94
2023-04-07T06:08:19.807Z,91.40
2023-04-07T06:09:19.820Z,93.30
2023-04-07T06:10:19.853Z,89.88
2023-04-07T06:11:19.915Z,91.78
2023-04-07T06:12:19.941Z,89.27
2023-04-07T06:13:19.936Z,93.80
2023-04-07T06:14:20.010Z,89.76
2023-04-07T06:15:20.042Z,96.02
2023-04-07T06:16:20.093Z,94.98
2023-04-07T06:17:29.003Z,95.78
2023-04-07T06:18:20.052Z,95.99
2023-04-07T06:19:20.017Z,96.42
2023-04-07T06:20:19.990Z,96.51
2023-04-07T06:21:19.996Z,96.51
2023-04-07T06:22:20.000Z,94.48
2023-04-07T06:23:19.990Z,95.11
2023-04-07T06:24:20.003Z,99.58
2023-04-07T06:25:19.975Z,92.56
2023-04-07T06:26:19.954Z,96.60
2023-04-07T06:27:19.998Z,94.34
2023-04-07T06:28:19.945Z,94.51
2023-04-07T06:29:19.959Z,92.47
2023-04-07T06:30:19.946Z,94.21
2023-04-07T06:31:20.075Z,94.20
2023-04-07T06:32:19.984Z,95.57
2023-04-07T06:33:19.940Z,95.59
2023-04-07T06:34:19.975Z,94.53
2023-04-07T06:35:19.920Z,99.46
2023-04-07T06:36:20.032Z,97.77
2023-04-07T06:37:19.922Z,96.10
2023-04-07T06:38:19.912Z,95.30
2023-04-07T06:39:19.915Z,96.49
2023-04-07T06:40:19.919Z,96.43
2023-04-07T06:41:19.851Z,95.10
2023-04-07T06:42:19.886Z,94.91
2023-04-07T06:43:19.897Z,96.40
2023-04-07T06:44:19.849Z,93.13
2023-04-07T06:45:19.861Z,98.26
2023-04-07T06:46:19.942Z,96.72
2023-04-07T06:47:19.865Z,95.14
2023-04-07T06:48:19.837Z,97.31
2023-04-07T06:49:19.837Z,97.12
2023-04-07T06:50:19.794Z,98.79
2023-04-07T06:51:19.789Z,98.00
2023-04-07T06:52:19.797Z,94.59
2023-04-07T06:53:19.768Z,96.34
2023-04-07T06:54:19.814Z,97.83
2023-04-07T06:55:19.745Z,95.48
2023-04-07T06:56:19.776Z,97.24
2023-04-07T06:57:19.788Z,96.48
2023-04-07T06:58:19.740Z,96.24
2023-04-07T06:59:19.754Z,96.44
2023-04-07T07:00:19.754Z,97.97
2023-04-07T07:01:19.777Z,95.51
2023-04-07T07:02:19.999Z,95.68
2023-04-07T07:03:19.841Z,100.39
2023-04-07T07:04:19.853Z,98.25
2023-04-07T07:05:19.720Z,100.04
2023-04-07T07:06:19.695Z,97.03
2023-04-07T07:07:19.691Z,100.02
2023-04-07T07:08:19.714Z,99.30
2023-04-07T07:09:19.717Z,99.31
2023-04-07T07:10:19.666Z,100.44
2023-04-07T07:11:19.685Z,98.68
2023-04-07T07:12:19.682Z,101.00
2023-04-07T07:13:19.630Z,99.95
2023-04-07T07:14:19.632Z,99.81
2023-04-07T07:15:19.648Z,101.00
2023-04-07T07:16:19.783Z,103.02
2023-04-07T07:17:19.745Z,100.51
2023-04-07T07:18:19.832Z,101.74
2023-04-07T07:19:19.880Z,99.95
2023-04-07T07:20:19.951Z,99.60
2023-04-07T07:21:20.005Z,103.96
2023-04-07T07:22:20.025Z,102.07
2023-04-07T07:23:20.107Z,102.08
2023-04-07T07:24:20.174Z,100.50
2023-04-07T07:25:20.224Z,99.37
2023-04-07T07:26:20.290Z,100.45
2023-04-07T07:27:20.356Z,100.90
2023-04-07T07:28:20.453Z,98.92
2023-04-07T07:29:20.524Z,102.64
2023-04-07T07:30:20.568Z,97.21
2023-04-07T07:31:20.637Z,100.43
2023-04-07T07:32:20.696Z,100.52
2023-04-07T07:33:20.724Z,98.61
2023-04-07T07:34:20.804Z,101.81
2023-04-07T07:35:20.909Z,101.84
2023-04-07T07:36:20.986Z,99.08
2023-04-07T07:37:20.985Z,103.61
2023-04-07T07:38:21.090Z,99.66
2023-04-07T07:39:21.143Z,102.57
2023-04-07T07:40:21.204Z,106.14
2023-04-07T07:41:21.258Z,105.25
2023-04-07T07:42:21.299Z,104.49
2023-04-07T07:43:21.370Z,104.21
2023-04-07T07:44:21.440Z,102.84
2023-04-07T07:45:21.490Z,103.42
2023-04-07T07:46:21.584Z,106.68
2023-04-07T07:47:21.653Z,107.63
2023-04-07T07:48:21.679Z,107.08
2023-04-07T07:49:21.899Z,105.50
2023-04-07T07:50:21.887Z,107.40
2023-04-07T07:51:21.914Z,106.14
2023-04-07T07:52:21.901Z,107.62
2023-04-07T07:53:21.959Z,105.65
2023-04-07T07:54:22.028Z,105.21
2023-04-07T07:55:22.152Z,107.11
2023-04-07T07:56:22.101Z,109.63
2023-04-07T07:57:22.183Z,110.71
2023-04-07T07:58:22.244Z,110.71
2023-04-07T07:59:22.298Z,111.06
2023-04-07T08:00:22.299Z,112.33
2023-04-07T08:01:22.365Z,112.44
2023-04-07T08:02:22.498Z,113.46
2023-04-07T08:03:22.603Z,114.72
2023-04-07T08:04:22.595Z,115.58
2023-04-07T08:05:22.611Z,118.15
2023-04-07T08:06:22.666Z,116.83
2023-04-07T08:07:22.717Z,116.17
2023-04-07T08:08:22.776Z,116.25
2023-04-07T08:09:22.838Z,114.93
2023-04-07T08:10:22.886Z,113.71
2023-04-07T08:11:22.948Z,119.96
2023-04-07T08:12:22.996Z,120.59
2023-04-07T08:13:23.071Z,122.58
2023-04-07T08:14:23.182Z,120.81
2023-04-07T08:15:23.179Z,122.10
2023-04-07T08:16:23.289Z,123.74
2023-04-07T08:17:23.339Z,120.59
2023-04-07T08:18:23.361Z,122.40
2023-04-07T08:19:23.412Z,121.56
2023-04-07T08:20:23.473Z,121.95
2023-04-07T08:21:23.528Z,120.06
2023-04-07T08:22:23.592Z,122.57
2023-04-07T08:23:23.705Z,122.47
2023-04-07T08:24:23.708Z,118.66
2023-04-07T08:25:23.789Z,120.70
2023-04-07T08:26:23.815Z,120.44
2023-04-07T08:27:23.838Z,121.40
2023-04-07T08:28:23.937Z,123.67
2023-04-07T08:29:24.009Z,123.49
2023-04-07T08:30:24.093Z,124.10
2023-04-07T08:31:24.145Z,125.25
2023-04-07T08:32:24.222Z,122.06
2023-04-07T08:33:24.271Z,125.13
2023-04-07T08:34:24.285Z,123.44
2023-04-07T08:35:24.371Z,123.45
2023-04-07T08:36:24.463Z,115.24
2023-04-07T08:37:24.476Z,125.18
2023-04-07T08:38:24.579Z,126.09
2023-04-07T08:39:24.564Z,123.57
2023-04-07T08:40:24.629Z,124.83
2023-04-07T08:41:24.681Z,125.02
2023-04-07T08:42:24.764Z,122.65
2023-04-07T08:43:24.800Z,121.97
2023-04-07T08:44:24.881Z,121.34
2023-04-07T08:45:24.923Z,126.00
2023-04-07T08:46:25.023Z,127.32
2023-04-07T08:47:25.041Z,125.26
2023-04-07T08:48:25.105Z,122.54
2023-04-07T08:49:25.108Z,117.83
2023-04-07T08:50:25.191Z,126.96
2023-04-07T08:51:25.242Z,118.48
2023-04-07T08:52:25.312Z,125.17
2023-04-07T08:53:25.382Z,122.67
2023-04-07T08:54:25.436Z,121.94
2023-04-07T08:55:25.479Z,123.02
2023-04-07T08:56:25.542Z,115.05
2023-04-07T08:57:25.556Z,114.99
2023-04-07T08:58:25.601Z,115.67
2023-04-07T08:59:25.630Z,119.32
2023-04-07T09:00:25.714Z,116.63
2023-04-07T09:01:25.773Z,116.94
2023-04-07T09:02:25.932Z,121.34
2023-04-07T09:03:25.876Z,118.88
2023-04-07T09:04:25.911Z,112.67
2023-04-07T09:05:25.938Z,118.41
2023-04-07T09:06:25.937Z,105.09
2023-04-07T09:07:25.984Z,120.84
2023-04-07T09:08:26.062Z,105.31
2023-04-07T09:09:26.062Z,109.12
2023-04-07T09:10:26.088Z,114.14
2023-04-07T09:11:26.181Z,116.45
2023-04-07T09:12:26.183Z,109.30
2023-04-07T09:13:26.197Z,107.98
2023-04-07T09:14:26.255Z,110.43
2023-04-07T09:15:26.283Z,113.26
2023-04-07T09:16:26.436Z,104.85
2023-04-07T09:17:26.428Z,105.24
2023-04-07T09:18:26.434Z,105.97
2023-04-07T09:19:26.428Z,106.49
2023-04-07T09:20:26.496Z,105.65
2023-04-07T09:21:26.498Z,108.91
2023-04-07T09:22:26.534Z,105.69
2023-04-07T09:23:26.573Z,99.47
2023-04-07T09:24:26.652Z,107.19
2023-04-07T09:25:26.660Z,105.78
2023-04-07T09:26:26.663Z,101.26
2023-04-07T09:27:26.665Z,94.86
2023-04-07T09:28:26.688Z,101.52
2023-04-07T09:29:26.707Z,94.99
2023-04-07T09:30:26.769Z,100.00
2023-04-07T09:31:26.812Z,101.32
2023-04-07T09:32:26.883Z,103.82
2023-04-07T09:33:26.811Z,99.60
2023-04-07T09:34:26.833Z,105.90
2023-04-07T09:35:26.924Z,92.96
2023-04-07T09:36:26.876Z,97.27
2023-04-07T09:37:26.914Z,90.25
2023-04-07T09:38:26.934Z,89.21
2023-04-07T09:39:26.938Z,92.50
2023-04-07T09:40:26.966Z,92.41
2023-04-07T09:41:26.968Z,93.67
2023-04-07T09:42:26.974Z,86.43
2023-04-07T09:43:26.981Z,92.74
2023-04-07T09:44:27.017Z,88.86
2023-04-07T09:45:40.245Z,83.89
2023-04-07T09:46:28.123Z,84.12
2023-04-07T09:47:27.080Z,85.92
2023-04-07T09:48:26.975Z,85.53
2023-04-07T09:49:26.992Z,85.11
2023-04-07T09:50:26.996Z,84.92
2023-04-07T09:51:26.965Z,79.47
2023-04-07T09:52:26.936Z,88.31
2023-04-07T09:53:27.021Z,76.20
2023-04-07T09:54:26.965Z,81.94
2023-04-07T09:55:26.972Z,76.86
2023-04-07T09:56:26.942Z,76.45
2023-04-07T09:57:26.904Z,77.71
2023-04-07T09:58:26.909Z,75.73
2023-04-07T09:59:26.903Z,73.50
2023-04-07T10:00:26.918Z,74.35
2023-04-07T10:01:27.034Z,73.96
2023-04-07T10:02:27.041Z,76.65
2023-04-07T10:03:26.913Z,74.78
2023-04-07T10:04:26.888Z,73.23
2023-04-07T10:05:26.886Z,66.73
2023-04-07T10:06:26.872Z,69.11
2023-04-07T10:07:26.840Z,70.09
2023-04-07T10:08:26.869Z,67.42
2023-04-07T10:09:26.887Z,67.97
2023-04-07T10:10:26.880Z,62.22
2023-04-07T10:11:26.840Z,69.10
2023-04-07T10:12:26.843Z,63.80
2023-04-07T10:13:26.816Z,64.62
2023-04-07T10:14:26.794Z,65.46
2023-04-07T10:15:26.824Z,61.72
2023-04-07T10:16:26.847Z,62.24
2023-04-07T10:17:26.932Z,61.84
2023-04-07T10:18:26.939Z,64.13
2023-04-07T10:19:26.994Z,61.59
2023-04-07T10:20:27.084Z,67.35
2023-04-07T10:21:27.120Z,62.32
2023-04-07T10:22:27.232Z,61.93
2023-04-07T10:23:27.265Z,60.76
2023-04-07T10:24:27.344Z,63.18
2023-04-07T10:25:27.411Z,61.88
2023-04-07T10:26:27.420Z,61.99
2023-04-07T10:27:27.489Z,57.18
2023-04-07T10:28:27.565Z,58.94
2023-04-07T10:29:27.616Z,59.42
2023-04-07T10:30:27.662Z,59.66
2023-04-07T10:31:27.701Z,62.05
2023-04-07T10:32:27.768Z,62.76
2023-04-07T10:33:27.778Z,57.39
2023-04-07T10:34:27.923Z,57.15
2023-04-07T10:35:27.921Z,59.09
2023-04-07T10:36:27.974Z,62.97
2023-04-07T10:37:28.000Z,58.47
2023-04-07T10:38:28.042Z,58.89
2023-04-07T10:39:28.088Z,58.98
2023-04-07T10:40:28.098Z,64.29
2023-04-07T10:41:28.133Z,61.34
2023-04-07T10:42:28.169Z,60.96
2023-04-07T10:43:28.179Z,67.45
2023-04-07T10:44:28.231Z,69.52
2023-04-07T10:45:28.272Z,70.74
2023-04-07T10:46:28.337Z,71.36
2023-04-07T10:47:28.363Z,76.75
2023-04-07T10:48:28.379Z,83.39
2023-04-07T10:49:28.425Z,75.15
2023-04-07T10:50:28.436Z,82.44
2023-04-07T10:51:28.455Z,87.41
2023-04-07T10:52:28.458Z,89.42
2023-04-07T10:53:28.509Z,87.39
2023-04-07T10:54:29.508Z,92.61
2023-04-07T10:55:28.505Z,98.48
2023-04-07T10:56:28.574Z,94.72
2023-04-07T10:57:28.550Z,97.49
2023-04-07T10:58:28.585Z,101.68
2023-04-07T10:59:28.597Z,106.13
2023-04-07T11:00:28.599Z,107.11
2023-04-07T11:01:28.755Z,112.96
2023-04-07T11:02:28.853Z,111.28
2023-04-07T11:03:28.771Z,110.88
2023-04-07T11:04:28.782Z,111.34
2023-04-07T11:05:28.745Z,111.47
2023-04-07T11:06:28.767Z,118.41
2023-04-07T11:07:28.778Z,115.30
2023-04-07T11:08:28.800Z,118.49
2023-04-07T11:09:28.809Z,119.72
2023-04-07T11:10:28.878Z,120.35
2023-04-07T11:11:28.840Z,122.51
2023-04-07T11:12:28.864Z,121.46
2023-04-07T11:13:28.859Z,123.12
2023-04-07T11:14:28.911Z,125.52
2023-04-07T11:15:28.928Z,123.10
2023-04-07T11:16:29.032Z,124.68
2023-04-07T11:17:29.029Z,126.60
2023-04-07T11:18:28.983Z,127.77
2023-04-07T11:19:29.006Z,130.62
2023-04-07T11:20:29.026Z,128.99
2023-04-07T11:21:29.030Z,131.23
2023-04-07T11:22:30.315Z,133.19
2023-04-07T11:23:29.078Z,133.47
2023-04-07T11:24:29.093Z,135.32
2023-04-07T11:25:29.139Z,135.26
2023-04-07T11:26:29.092Z,138.40
2023-04-07T11:27:29.155Z,135.81
2023-04-07T11:28:29.141Z,139.89
2023-04-07T11:29:29.156Z,137.52
2023-04-07T11:30:29.157Z,136.86
2023-04-07T11:31:29.313Z,138.55
2023-04-07T11:32:29.279Z,137.20
2023-04-07T11:33:29.223Z,137.58
2023-04-07T11:34:29.250Z,139.74
2023-04-07T11:35:29.288Z,140.45
2023-04-07T11:36:29.250Z,140.10
2023-04-07T11:37:29.301Z,139.42
2023-04-07T11:38:29.293Z,142.37
2023-04-07T11:39:29.273Z,139.52
2023-04-07T11:40:29.303Z,142.35
2023-04-07T11:41:29.295Z,142.94
2023-04-07T11:42:29.352Z,143.16
2023-04-07T11:43:29.365Z,144.00
2023-04-07T11:44:29.363Z,144.68
2023-04-07T11:45:29.372Z,143.85
2023-04-07T11:46:29.406Z,141.92
2023-04-07T11:47:29.393Z,144.88
2023-04-07T11:48:29.412Z,147.31
2023-04-07T11:49:29.464Z,146.68
2023-04-07T11:50:29.407Z,147.43
2023-04-07T11:51:29.430Z,146.95
2023-04-07T11:52:29.412Z,146.51
2023-04-07T11:53:29.415Z,151.12
2023-04-07T11:54:29.436Z,146.26
2023-04-07T11:55:29.431Z,147.70
2023-04-07T11:56:29.410Z,150.09
2023-04-07T11:57:29.399Z,147.63
2023-04-07T11:58:29.385Z,150.73
2023-04-07T11:59:29.420Z,153.14
2023-04-07T12:00:29.394Z,150.76
2023-04-07T12:01:29.422Z,151.28
2023-04-07T12:02:29.517Z,151.26
2023-04-07T12:03:29.482Z,149.26
2023-04-07T12:04:29.430Z,153.95
2023-04-07T12:05:29.471Z,153.42
2023-04-07T12:06:29.412Z,152.56
2023-04-07T12:07:29.450Z,152.33
2023-04-07T12:08:29.489Z,150.01
2023-04-07T12:09:29.539Z,151.57
2023-04-07T12:10:29.534Z,151.14
2023-04-07T12:11:29.576Z,152.51
2023-04-07T12:12:29.616Z,146.95
2023-04-07T12:13:29.652Z,148.69
2023-04-07T12:14:29.700Z,143.03
2023-04-07T12:15:29.724Z,140.32
2023-04-07T12:16:29.976Z,139.23
2023-04-07T12:17:29.898Z,136.10
2023-04-07T12:18:29.933Z,130.72
2023-04-07T12:19:30.026Z,129.07
2023-04-07T12:20:30.076Z,128.30
2023-04-07T12:21:30.118Z,120.29
2023-04-07T12:22:30.201Z,121.82
2023-04-07T12:23:30.231Z,119.06
2023-04-07T12:24:30.274Z,111.41
2023-04-07T12:25:30.377Z,110.16
2023-04-07T12:26:30.422Z,103.04
2023-04-07T12:27:42.043Z,102.38
2023-04-07T12:28:31.493Z,102.57
2023-04-07T12:29:30.477Z,101.86
2023-04-07T12:30:30.485Z,100.14
2023-04-07T12:31:30.517Z,92.92
2023-04-07T12:32:30.499Z,90.42
2023-04-07T12:33:30.474Z,88.63
2023-04-07T12:34:30.443Z,95.15
2023-04-07T12:35:30.479Z,88.68
2023-04-07T12:36:30.533Z,95.26
2023-04-07T12:37:30.604Z,93.13
2023-04-07T12:38:30.647Z,85.88
2023-04-07T12:39:30.715Z,91.95
2023-04-07T12:40:30.761Z,86.14
2023-04-07T12:41:30.829Z,87.33
2023-04-07T12:42:30.886Z,85.17
2023-04-07T12:43:30.959Z,77.06
2023-04-07T12:44:31.030Z,77.00
2023-04-07T12:45:31.101Z,78.89